createdAt,value
2016-05-28T00:00:07.579Z,16.47
2016-05-28T00:00:17.595Z,16.5
2016-05-28T00:00:27.610Z,16.5
2016-05-28T00:00:37.595Z,16.51
2016-05-28T00:00:47.629Z,16.47
2016-05-28T00:00:57.613Z,16.5
2016-05-28T00:01:07.613Z,16.46
2016-05-28T00:01:17.629Z,16.46
2016-05-28T00:01:27.629Z,16.44
2016-05-28T00:01:37.629Z,16.49
2016-05-28T00:01:47.647Z,16.4
2016-05-28T00:01:57.647Z,16.55
2016-05-28T00:02:07.647Z,16.43
2016-05-28T00:02:17.663Z,16.47
2016-05-28T00:02:27.663Z,16.51
2016-05-28T00:02:37.663Z,16.5
2016-05-28T00:02:47.666Z,16.39
2016-05-28T00:02:57.682Z,16.44
2016-05-28T00:03:07.682Z,16.41
2016-05-28T00:03:17.697Z,16.46
2016-05-28T00:03:27.697Z,16.41
2016-05-28T00:03:37.697Z,16.51
2016-05-28T00:03:47.699Z,16.47
2016-05-28T00:03:57.699Z,16.41
2016-05-28T00:04:07.715Z,16.41
2016-05-28T00:04:17.715Z,16.39
2016-05-28T00:04:27.731Z,16.55
2016-05-28T00:04:37.731Z,16.5
2016-05-28T00:04:47.734Z,16.46
2016-05-28T00:04:58.140Z,16.41
2016-05-28T00:05:07.984Z,16.51
2016-05-28T00:05:17.749Z,16.39
2016-05-28T00:05:27.749Z,16.41
2016-05-28T00:05:37.749Z,16.41
2016-05-28T00:05:47.768Z,16.55
2016-05-28T00:05:57.768Z,16.46
2016-05-28T00:06:07.768Z,16.43
2016-05-28T00:06:17.783Z,16.46
2016-05-28T00:06:27.783Z,16.47
2016-05-28T00:06:37.783Z,16.39
2016-05-28T00:06:47.801Z,16.36
2016-05-28T00:06:57.801Z,16.44
2016-05-28T00:07:07.801Z,16.43
2016-05-28T00:07:17.801Z,16.41
2016-05-28T00:07:27.817Z,16.44
2016-05-28T00:07:37.817Z,16.36
2016-05-28T00:07:47.821Z,16.41
2016-05-28T00:07:57.836Z,16.49
2016-05-28T00:08:07.836Z,16.46
2016-05-28T00:08:17.836Z,16.47
2016-05-28T00:08:27.852Z,16.43
2016-05-28T00:08:37.852Z,16.43
2016-05-28T00:08:47.854Z,16.41
2016-05-28T00:08:57.870Z,16.4
2016-05-28T00:09:07.870Z,16.4
2016-05-28T00:09:17.870Z,16.4
2016-05-28T00:09:27.870Z,16.44
2016-05-28T00:09:37.885Z,16.37
2016-05-28T00:09:47.887Z,16.32
2016-05-28T00:09:57.887Z,16.43
2016-05-28T00:10:07.903Z,16.43
2016-05-28T00:10:17.903Z,16.43
2016-05-28T00:10:27.903Z,16.4
2016-05-28T00:10:37.918Z,16.34
2016-05-28T00:10:47.922Z,16.41
2016-05-28T00:10:57.922Z,16.4
2016-05-28T00:11:07.922Z,16.41
2016-05-28T00:11:17.938Z,16.34
2016-05-28T00:11:27.938Z,16.41
2016-05-28T00:11:37.938Z,16.43
2016-05-28T00:11:47.956Z,16.34
2016-05-28T00:11:57.956Z,16.4
2016-05-28T00:12:07.956Z,16.43
2016-05-28T00:12:17.971Z,16.36
2016-05-28T00:12:27.971Z,16.4
2016-05-28T00:12:37.971Z,16.37
2016-05-28T00:12:47.990Z,16.44
2016-05-28T00:12:57.990Z,16.34
2016-05-28T00:13:07.990Z,16.31
2016-05-28T00:13:17.990Z,16.39
2016-05-28T00:13:28.006Z,16.47
2016-05-28T00:13:38.021Z,16.4
2016-05-28T00:13:48.024Z,16.29
2016-05-28T00:13:58.024Z,16.47
2016-05-28T00:14:08.024Z,16.32
2016-05-28T00:14:18.024Z,16.25
2016-05-28T00:14:28.024Z,16.37
2016-05-28T00:14:38.040Z,16.41
2016-05-28T00:14:48.042Z,16.4
2016-05-28T00:14:58.042Z,16.34
2016-05-28T00:15:08.057Z,16.41
2016-05-28T00:15:18.057Z,16.41
2016-05-28T00:15:28.073Z,16.4
2016-05-28T00:15:38.073Z,16.41
2016-05-28T00:15:48.076Z,16.46
2016-05-28T00:15:58.076Z,16.36
2016-05-28T00:16:08.076Z,16.34
2016-05-28T00:16:18.092Z,16.36
2016-05-28T00:16:28.092Z,16.36
2016-05-28T00:16:38.092Z,16.31
2016-05-28T00:16:48.109Z,16.32
2016-05-28T00:16:58.109Z,16.37
2016-05-28T00:17:08.125Z,16.34
2016-05-28T00:17:18.109Z,16.36
2016-05-28T00:17:28.125Z,16.34
2016-05-28T00:17:38.125Z,16.28
2016-05-28T00:17:48.144Z,16.41
2016-05-28T00:17:58.144Z,16.31
2016-05-28T00:18:08.144Z,16.43
2016-05-28T00:18:18.159Z,16.37
2016-05-28T00:18:28.159Z,16.36
2016-05-28T00:18:38.159Z,16.4
2016-05-28T00:18:48.162Z,16.37
2016-05-28T00:18:58.178Z,16.26
2016-05-28T00:19:08.178Z,16.31
2016-05-28T00:19:18.178Z,16.29
2016-05-28T00:19:28.193Z,16.32
2016-05-28T00:19:38.193Z,16.39
2016-05-28T00:19:48.196Z,16.36
2016-05-28T00:19:58.853Z,16.31
2016-05-28T00:20:08.368Z,16.32
2016-05-28T00:20:18.228Z,16.34
2016-05-28T00:20:28.243Z,16.32
2016-05-28T00:20:38.228Z,16.31
2016-05-28T00:20:48.230Z,16.32
2016-05-28T00:20:58.230Z,16.31
2016-05-28T00:21:08.245Z,16.34
2016-05-28T00:21:18.245Z,16.36
2016-05-28T00:21:28.245Z,16.26
2016-05-28T00:21:38.261Z,16.34
2016-05-28T00:21:48.264Z,16.29
2016-05-28T00:21:58.264Z,16.31
2016-05-28T00:22:08.264Z,16.26
2016-05-28T00:22:18.280Z,16.25
2016-05-28T00:22:28.280Z,16.29
2016-05-28T00:22:38.280Z,16.24
2016-05-28T00:22:48.298Z,16.28
2016-05-28T00:22:58.298Z,16.32
2016-05-28T00:23:08.298Z,16.25
2016-05-28T00:23:18.298Z,16.22
2016-05-28T00:23:28.314Z,16.31
2016-05-28T00:23:38.329Z,16.29
2016-05-28T00:23:48.317Z,16.29
2016-05-28T00:23:58.332Z,16.28
2016-05-28T00:24:08.332Z,16.34
2016-05-28T00:24:18.332Z,16.25
2016-05-28T00:24:28.348Z,16.25
2016-05-28T00:24:38.348Z,16.26
2016-05-28T00:24:48.350Z,16.25
2016-05-28T00:24:58.350Z,16.26
2016-05-28T00:25:08.366Z,16.22
2016-05-28T00:25:18.381Z,16.21
2016-05-28T00:25:28.366Z,16.17
2016-05-28T00:25:38.381Z,16.25
2016-05-28T00:25:48.383Z,16.21
2016-05-28T00:25:58.383Z,16.21
2016-05-28T00:26:08.399Z,16.28
2016-05-28T00:26:18.399Z,16.21
2016-05-28T00:26:28.399Z,16.28
2016-05-28T00:26:38.415Z,16.16
2016-05-28T00:26:48.419Z,16.21
2016-05-28T00:26:58.419Z,16.21
2016-05-28T00:27:08.419Z,16.24
2016-05-28T00:27:18.434Z,16.24
2016-05-28T00:27:28.434Z,16.28
2016-05-28T00:27:38.434Z,16.25
2016-05-28T00:27:48.452Z,16.17
2016-05-28T00:27:58.452Z,16.17
2016-05-28T00:28:08.452Z,16.17
2016-05-28T00:28:18.452Z,16.22
2016-05-28T00:28:28.467Z,16.24
2016-05-28T00:28:38.467Z,16.25
2016-05-28T00:28:48.470Z,16.21
2016-05-28T00:28:58.486Z,16.1
2016-05-28T00:29:08.486Z,16.18
2016-05-28T00:29:18.486Z,16.18
2016-05-28T00:29:28.502Z,16.18
2016-05-28T00:29:38.502Z,16.21
2016-05-28T00:29:48.505Z,16.06
2016-05-28T00:29:58.505Z,16.26
2016-05-28T00:30:08.520Z,16.16
2016-05-28T00:30:18.520Z,16.22
2016-05-28T00:30:28.520Z,16.1
2016-05-28T00:30:38.536Z,16.09
2016-05-28T00:30:48.538Z,16.09
2016-05-28T00:30:58.538Z,16.13
2016-05-28T00:31:08.554Z,16.12
2016-05-28T00:31:18.554Z,16.05
2016-05-28T00:31:28.569Z,16.12
2016-05-28T00:31:38.569Z,16.06
2016-05-28T00:31:48.572Z,16.17
2016-05-28T00:31:58.572Z,16.05
2016-05-28T00:32:08.572Z,16.13
2016-05-28T00:32:18.588Z,16.09
2016-05-28T00:32:28.588Z,16.16
2016-05-28T00:32:38.588Z,16.08
2016-05-28T00:32:48.606Z,16.09
2016-05-28T00:32:58.606Z,16.12
2016-05-28T00:33:08.606Z,16.08
2016-05-28T00:33:18.606Z,16.08
2016-05-28T00:33:28.622Z,16.08
2016-05-28T00:33:38.622Z,16.09
2016-05-28T00:33:48.640Z,16.05
2016-05-28T00:33:58.640Z,16.09
2016-05-28T00:34:08.640Z,16.1
2016-05-28T00:34:18.640Z,16.09
2016-05-28T00:34:28.655Z,16.06
2016-05-28T00:34:38.655Z,16.08
2016-05-28T00:34:48.658Z,15.99
2016-05-28T00:34:58.908Z,16
2016-05-28T00:35:08.705Z,16.02
2016-05-28T00:35:19.205Z,16.03
2016-05-28T00:35:28.690Z,16
2016-05-28T00:35:38.690Z,15.98
2016-05-28T00:35:48.693Z,16
2016-05-28T00:35:58.693Z,16.02
2016-05-28T00:36:08.693Z,15.98
2016-05-28T00:36:18.708Z,16.03
2016-05-28T00:36:28.708Z,15.99
2016-05-28T00:36:38.724Z,16.03
2016-05-28T00:36:48.727Z,16.02
2016-05-28T00:36:58.727Z,16.06
2016-05-28T00:37:08.727Z,16
2016-05-28T00:37:18.742Z,16.02
2016-05-28T00:37:28.742Z,16
2016-05-28T00:37:38.742Z,16.02
2016-05-28T00:37:48.760Z,15.99
2016-05-28T00:37:58.760Z,16.05
2016-05-28T00:38:08.760Z,15.98
2016-05-28T00:38:18.776Z,16
2016-05-28T00:38:28.791Z,15.94
2016-05-28T00:38:38.776Z,15.94
2016-05-28T00:38:48.779Z,16.05
2016-05-28T00:38:58.794Z,16.02
2016-05-28T00:39:08.794Z,16.03
2016-05-28T00:39:18.794Z,16.03
2016-05-28T00:39:28.810Z,15.96
2016-05-28T00:39:38.810Z,16.05
2016-05-28T00:39:48.812Z,16.02
2016-05-28T00:39:58.828Z,15.98
2016-05-28T00:40:08.828Z,15.98
2016-05-28T00:40:18.828Z,15.96
2016-05-28T00:40:28.828Z,16.02
2016-05-28T00:40:38.843Z,16.02
2016-05-28T00:40:48.846Z,15.96
2016-05-28T00:40:58.862Z,15.99
2016-05-28T00:41:08.862Z,15.98
2016-05-28T00:41:18.862Z,16.05
2016-05-28T00:41:28.862Z,16
2016-05-28T00:41:38.877Z,15.91
2016-05-28T00:41:48.880Z,15.92
2016-05-28T00:41:58.880Z,15.88
2016-05-28T00:42:08.880Z,15.87
2016-05-28T00:42:18.896Z,15.98
2016-05-28T00:42:28.896Z,15.96
2016-05-28T00:42:38.896Z,15.99
2016-05-28T00:42:48.915Z,15.99
2016-05-28T00:42:58.915Z,15.92
2016-05-28T00:43:08.915Z,15.98
2016-05-28T00:43:18.930Z,15.98
2016-05-28T00:43:28.930Z,15.94
2016-05-28T00:43:38.930Z,15.92
2016-05-28T00:43:48.932Z,15.96
2016-05-28T00:43:58.948Z,15.94
2016-05-28T00:44:08.948Z,15.94
2016-05-28T00:44:18.948Z,15.96
2016-05-28T00:44:28.964Z,15.96
2016-05-28T00:44:38.964Z,15.9
2016-05-28T00:44:48.967Z,15.91
2016-05-28T00:44:58.982Z,15.98
2016-05-28T00:45:08.982Z,15.88
2016-05-28T00:45:18.982Z,15.96
2016-05-28T00:45:28.982Z,15.96
2016-05-28T00:45:38.998Z,16.02
2016-05-28T00:45:49.001Z,15.96
2016-05-28T00:45:59.001Z,15.85
2016-05-28T00:46:09.016Z,15.81
2016-05-28T00:46:19.016Z,15.84
2016-05-28T00:46:29.016Z,15.78
2016-05-28T00:46:39.016Z,15.87
2016-05-28T00:46:49.035Z,15.88
2016-05-28T00:46:59.035Z,15.85
2016-05-28T00:47:09.035Z,15.84
2016-05-28T00:47:19.051Z,15.83
2016-05-28T00:47:29.051Z,15.83
2016-05-28T00:47:39.051Z,15.83
2016-05-28T00:47:49.053Z,15.8
2016-05-28T00:47:59.068Z,15.85
2016-05-28T00:48:09.068Z,15.96
2016-05-28T00:48:19.068Z,15.92
2016-05-28T00:48:29.084Z,15.85
2016-05-28T00:48:39.084Z,15.92
2016-05-28T00:48:49.087Z,15.96
2016-05-28T00:48:59.103Z,15.92
2016-05-28T00:49:09.103Z,15.92
2016-05-28T00:49:19.103Z,15.84
2016-05-28T00:49:29.118Z,15.84
2016-05-28T00:49:39.118Z,15.88
2016-05-28T00:49:49.120Z,15.91
2016-05-28T00:49:59.980Z,15.87
2016-05-28T00:50:09.136Z,15.87
2016-05-28T00:50:19.136Z,15.81
2016-05-28T00:50:29.136Z,15.85
2016-05-28T00:50:39.151Z,15.84
2016-05-28T00:50:49.154Z,15.88
2016-05-28T00:50:59.154Z,15.85
2016-05-28T00:51:09.154Z,15.85
2016-05-28T00:51:19.170Z,15.85
2016-05-28T00:51:29.170Z,15.85
2016-05-28T00:51:39.170Z,15.83
2016-05-28T00:51:49.189Z,15.87
2016-05-28T00:51:59.189Z,15.85
2016-05-28T00:52:09.189Z,15.84
2016-05-28T00:52:19.204Z,15.78
2016-05-28T00:52:29.204Z,15.83
2016-05-28T00:52:39.204Z,15.84
2016-05-28T00:52:49.222Z,15.8
2016-05-28T00:52:59.222Z,15.83
2016-05-28T00:53:09.222Z,15.84
2016-05-28T00:53:19.222Z,15.81
2016-05-28T00:53:29.238Z,15.83
2016-05-28T00:53:39.238Z,15.78
2016-05-28T00:53:49.241Z,15.81
2016-05-28T00:53:59.256Z,15.75
2016-05-28T00:54:09.256Z,15.87
2016-05-28T00:54:19.256Z,15.85
2016-05-28T00:54:29.272Z,15.73
2016-05-28T00:54:39.272Z,15.7
2016-05-28T00:54:49.275Z,15.75
2016-05-28T00:54:59.275Z,15.8
2016-05-28T00:55:09.290Z,15.76
2016-05-28T00:55:19.290Z,15.84
2016-05-28T00:55:29.290Z,15.81
2016-05-28T00:55:39.306Z,15.83
2016-05-28T00:55:49.308Z,15.73
2016-05-28T00:55:59.308Z,15.8
2016-05-28T00:56:09.324Z,15.75
2016-05-28T00:56:19.324Z,15.76
2016-05-28T00:56:29.324Z,15.75
2016-05-28T00:56:39.324Z,15.73
2016-05-28T00:56:49.343Z,15.78
2016-05-28T00:56:59.343Z,15.76
2016-05-28T00:57:09.343Z,15.83
2016-05-28T00:57:19.359Z,15.81
2016-05-28T00:57:29.359Z,15.78
2016-05-28T00:57:39.359Z,15.8
2016-05-28T00:57:49.377Z,15.7
2016-05-28T00:57:59.377Z,15.76
2016-05-28T00:58:09.377Z,15.72
2016-05-28T00:58:19.377Z,15.72
2016-05-28T00:58:29.392Z,15.73
2016-05-28T00:58:39.392Z,15.81
2016-05-28T00:58:49.394Z,15.81
2016-05-28T00:58:59.394Z,15.76
2016-05-28T00:59:09.410Z,15.73
2016-05-28T00:59:19.410Z,15.75
2016-05-28T00:59:29.425Z,15.75
2016-05-28T00:59:39.425Z,15.72
2016-05-28T00:59:49.429Z,15.75
2016-05-28T00:59:59.429Z,15.75
2016-05-28T01:00:09.429Z,15.72
2016-05-28T01:00:19.445Z,15.76
2016-05-28T01:00:29.445Z,15.8
2016-05-28T01:00:39.461Z,15.73
2016-05-28T01:00:49.463Z,15.72
2016-05-28T01:00:59.463Z,15.76
2016-05-28T01:01:09.463Z,15.7
2016-05-28T01:01:19.478Z,15.75
2016-05-28T01:01:29.478Z,15.76
2016-05-28T01:01:39.478Z,15.69
2016-05-28T01:01:49.480Z,15.76
2016-05-28T01:01:59.496Z,15.73
2016-05-28T01:02:09.512Z,15.72
2016-05-28T01:02:19.512Z,15.66
2016-05-28T01:02:29.512Z,15.72
2016-05-28T01:02:39.512Z,15.72
2016-05-28T01:02:49.515Z,15.75
2016-05-28T01:02:59.530Z,15.73
2016-05-28T01:03:09.530Z,15.7
2016-05-28T01:03:19.561Z,15.73
2016-05-28T01:03:29.546Z,15.7
2016-05-28T01:03:39.546Z,15.72
2016-05-28T01:03:49.549Z,15.67
2016-05-28T01:03:59.549Z,15.67
2016-05-28T01:04:09.564Z,15.67
2016-05-28T01:04:19.564Z,15.66
2016-05-28T01:04:29.564Z,15.62
2016-05-28T01:04:39.580Z,15.66
2016-05-28T01:04:49.583Z,15.67
2016-05-28T01:04:59.583Z,15.65
2016-05-28T01:05:09.583Z,15.66
2016-05-28T01:05:19.599Z,15.6
2016-05-28T01:05:29.599Z,15.69
2016-05-28T01:05:39.599Z,15.66
2016-05-28T01:05:49.616Z,15.6
2016-05-28T01:05:59.632Z,15.66
2016-05-28T01:06:09.616Z,15.63
2016-05-28T01:06:19.632Z,15.63
2016-05-28T01:06:29.632Z,15.63
2016-05-28T01:06:39.632Z,15.6
2016-05-28T01:06:49.651Z,15.59
2016-05-28T01:06:59.651Z,15.62
2016-05-28T01:07:09.666Z,15.66
2016-05-28T01:07:19.651Z,15.66
2016-05-28T01:07:29.666Z,15.54
2016-05-28T01:07:39.682Z,15.54
2016-05-28T01:07:49.669Z,15.65
2016-05-28T01:07:59.685Z,15.63
2016-05-28T01:08:09.700Z,15.63
2016-05-28T01:08:19.685Z,15.57
2016-05-28T01:08:29.700Z,15.62
2016-05-28T01:08:39.700Z,15.59
2016-05-28T01:08:49.782Z,15.57
2016-05-28T01:08:59.719Z,15.57
2016-05-28T01:09:09.719Z,15.66
2016-05-28T01:09:19.719Z,15.55
2016-05-28T01:09:29.782Z,15.62
2016-05-28T01:09:39.735Z,15.57
2016-05-28T01:09:49.738Z,15.62
2016-05-28T01:09:59.738Z,15.52
2016-05-28T01:10:09.800Z,15.54
2016-05-28T01:10:19.753Z,15.54
2016-05-28T01:10:29.753Z,15.52
2016-05-28T01:10:39.753Z,15.57
2016-05-28T01:10:49.770Z,15.65
2016-05-28T01:10:59.770Z,15.55
2016-05-28T01:11:09.770Z,15.57
2016-05-28T01:11:19.786Z,15.54
2016-05-28T01:11:29.786Z,15.6
2016-05-28T01:11:39.848Z,15.62
2016-05-28T01:11:49.789Z,15.65
2016-05-28T01:11:59.804Z,15.54
2016-05-28T01:12:09.867Z,15.54
2016-05-28T01:12:19.804Z,15.54
2016-05-28T01:12:29.820Z,15.57
2016-05-28T01:12:39.820Z,15.55
2016-05-28T01:12:49.823Z,15.54
2016-05-28T01:12:59.838Z,15.57
2016-05-28T01:13:09.901Z,15.57
2016-05-28T01:13:19.838Z,15.52
2016-05-28T01:13:29.838Z,15.52
2016-05-28T01:13:39.854Z,15.6
2016-05-28T01:13:49.904Z,15.55
2016-05-28T01:13:59.857Z,15.57
2016-05-28T01:14:09.920Z,15.48
2016-05-28T01:14:19.873Z,15.48
2016-05-28T01:14:29.888Z,15.54
2016-05-28T01:14:39.873Z,15.5
2016-05-28T01:14:49.890Z,15.51
2016-05-28T01:14:59.890Z,15.57
2016-05-28T01:15:09.890Z,15.47
2016-05-28T01:15:19.906Z,15.5
2016-05-28T01:15:29.906Z,15.52
2016-05-28T01:15:39.906Z,15.5
2016-05-28T01:15:49.910Z,15.59
2016-05-28T01:15:59.926Z,15.5
2016-05-28T01:16:09.988Z,15.5
2016-05-28T01:16:19.988Z,15.57
2016-05-28T01:16:29.941Z,15.5
2016-05-28T01:16:39.941Z,15.51
2016-05-28T01:16:49.959Z,15.5
2016-05-28T01:16:59.959Z,15.51
2016-05-28T01:17:09.959Z,15.51
2016-05-28T01:17:19.959Z,15.48
2016-05-28T01:17:29.974Z,15.51
2016-05-28T01:17:39.974Z,15.57
2016-05-28T01:17:49.993Z,15.51
2016-05-28T01:17:59.977Z,15.5
2016-05-28T01:18:09.993Z,15.51
2016-05-28T01:18:19.993Z,15.51
2016-05-28T01:18:29.993Z,15.5
2016-05-28T01:18:40.009Z,15.51
2016-05-28T01:18:50.058Z,15.5
2016-05-28T01:19:00.011Z,15.51
2016-05-28T01:19:10.026Z,15.54
2016-05-28T01:19:20.026Z,15.54
2016-05-28T01:19:30.026Z,15.5
2016-05-28T01:19:40.042Z,15.51
2016-05-28T01:19:50.045Z,15.48
2016-05-28T01:20:00.186Z,15.51
2016-05-28T01:20:10.045Z,15.52
2016-05-28T01:20:20.342Z,15.43
2016-05-28T01:20:30.061Z,15.5
2016-05-28T01:20:40.061Z,15.47
2016-05-28T01:20:50.079Z,15.48
2016-05-28T01:21:00.079Z,15.5
2016-05-28T01:21:10.079Z,15.43
2016-05-28T01:21:20.079Z,15.44
2016-05-28T01:21:30.095Z,15.48
2016-05-28T01:21:40.095Z,15.52
2016-05-28T01:21:50.112Z,15.43
2016-05-28T01:22:00.112Z,15.45
2016-05-28T01:22:10.112Z,15.51
2016-05-28T01:22:20.112Z,15.45
2016-05-28T01:22:30.112Z,15.48
2016-05-28T01:22:40.128Z,15.48
2016-05-28T01:22:50.131Z,15.48
2016-05-28T01:23:00.131Z,15.48
2016-05-28T01:23:10.147Z,15.45
2016-05-28T01:23:20.147Z,15.5
2016-05-28T01:23:30.147Z,15.48
2016-05-28T01:23:40.178Z,15.51
2016-05-28T01:23:50.165Z,15.48
2016-05-28T01:24:00.181Z,15.45
2016-05-28T01:24:10.165Z,15.41
2016-05-28T01:24:20.181Z,15.48
2016-05-28T01:24:30.181Z,15.45
2016-05-28T01:24:40.181Z,15.52
2016-05-28T01:24:50.199Z,15.51
2016-05-28T01:25:00.199Z,15.47
2016-05-28T01:25:10.199Z,15.5
2016-05-28T01:25:20.214Z,15.48
2016-05-28T01:25:30.214Z,15.44
2016-05-28T01:25:40.214Z,15.5
2016-05-28T01:25:50.233Z,15.54
2016-05-28T01:26:00.233Z,15.47
2016-05-28T01:26:10.233Z,15.51
2016-05-28T01:26:20.233Z,15.5
2016-05-28T01:26:30.233Z,15.52
2016-05-28T01:26:40.248Z,15.52
2016-05-28T01:26:50.250Z,15.52
2016-05-28T01:27:00.266Z,15.51
2016-05-28T01:27:10.266Z,15.5
2016-05-28T01:27:20.266Z,15.48
2016-05-28T01:27:30.266Z,15.55
2016-05-28T01:27:40.282Z,15.5
2016-05-28T01:27:50.286Z,15.51
2016-05-28T01:28:00.286Z,15.5
2016-05-28T01:28:10.286Z,15.48
2016-05-28T01:28:20.301Z,15.5
2016-05-28T01:28:30.301Z,15.51
2016-05-28T01:28:40.301Z,15.52
2016-05-28T01:28:50.320Z,15.6
2016-05-28T01:29:00.320Z,15.52
2016-05-28T01:29:10.320Z,15.6
2016-05-28T01:29:20.336Z,15.54
2016-05-28T01:29:30.336Z,15.51
2016-05-28T01:29:40.336Z,15.59
2016-05-28T01:29:50.353Z,15.54
2016-05-28T01:30:00.353Z,15.57
2016-05-28T01:30:10.353Z,15.6
2016-05-28T01:30:20.353Z,15.57
2016-05-28T01:30:30.369Z,15.6
2016-05-28T01:30:40.369Z,15.55
2016-05-28T01:30:50.372Z,15.54
2016-05-28T01:31:00.387Z,15.62
2016-05-28T01:31:10.387Z,15.52
2016-05-28T01:31:20.387Z,15.51
2016-05-28T01:31:30.403Z,15.57
2016-05-28T01:31:40.403Z,15.57
2016-05-28T01:31:50.405Z,15.54
2016-05-28T01:32:00.405Z,15.55
2016-05-28T01:32:10.405Z,15.57
2016-05-28T01:32:20.421Z,15.54
2016-05-28T01:32:30.421Z,15.57
2016-05-28T01:32:40.436Z,15.6
2016-05-28T01:32:50.439Z,15.52
2016-05-28T01:33:00.439Z,15.54
2016-05-28T01:33:10.455Z,15.51
2016-05-28T01:33:20.455Z,15.52
2016-05-28T01:33:30.455Z,15.51
2016-05-28T01:33:40.455Z,15.57
2016-05-28T01:33:50.458Z,15.57
2016-05-28T01:34:00.474Z,15.6
2016-05-28T01:34:10.474Z,15.54
2016-05-28T01:34:20.489Z,15.54
2016-05-28T01:34:30.911Z,15.57
2016-05-28T01:34:40.489Z,15.55
2016-05-28T01:34:50.491Z,15.59
2016-05-28T01:35:00.507Z,15.51
2016-05-28T01:35:10.601Z,15.62
2016-05-28T01:35:20.507Z,15.57
2016-05-28T01:35:30.522Z,15.57
2016-05-28T01:35:40.522Z,15.54
2016-05-28T01:35:50.525Z,15.6
2016-05-28T01:36:00.525Z,15.57
2016-05-28T01:36:10.541Z,15.57
2016-05-28T01:36:20.541Z,15.57
2016-05-28T01:36:30.541Z,15.51
2016-05-28T01:36:40.557Z,15.55
2016-05-28T01:36:50.560Z,15.54
2016-05-28T01:37:00.560Z,15.6
2016-05-28T01:37:10.575Z,15.52
2016-05-28T01:37:20.591Z,15.57
2016-05-28T01:37:30.575Z,15.54
2016-05-28T01:37:40.575Z,15.59
2016-05-28T01:37:50.593Z,15.57
2016-05-28T01:38:00.593Z,15.62
2016-05-28T01:38:10.593Z,15.59
2016-05-28T01:38:20.609Z,15.67
2016-05-28T01:38:30.609Z,15.54
2016-05-28T01:38:40.609Z,15.52
2016-05-28T01:38:50.627Z,15.54
2016-05-28T01:39:00.627Z,15.62
2016-05-28T01:39:10.627Z,15.54
2016-05-28T01:39:20.643Z,15.55
2016-05-28T01:39:30.643Z,15.57
2016-05-28T01:39:40.643Z,15.55
2016-05-28T01:39:50.645Z,15.63
2016-05-28T01:40:00.660Z,15.55
2016-05-28T01:40:10.660Z,15.54
2016-05-28T01:40:20.660Z,15.54
2016-05-28T01:40:30.676Z,15.7
2016-05-28T01:40:40.676Z,15.54
2016-05-28T01:40:50.680Z,15.54
2016-05-28T01:41:00.680Z,15.57
2016-05-28T01:41:10.696Z,15.63
2016-05-28T01:41:20.696Z,15.65
2016-05-28T01:41:30.696Z,15.55
2016-05-28T01:41:40.711Z,15.54
2016-05-28T01:41:50.713Z,15.52
2016-05-28T01:42:00.713Z,15.54
2016-05-28T01:42:10.729Z,15.54
2016-05-28T01:42:20.729Z,15.59
2016-05-28T01:42:30.729Z,15.54
2016-05-28T01:42:40.729Z,15.54
2016-05-28T01:42:50.748Z,15.6
2016-05-28T01:43:00.748Z,15.52
2016-05-28T01:43:10.748Z,15.52
2016-05-28T01:43:20.763Z,15.52
2016-05-28T01:43:30.763Z,15.59
2016-05-28T01:43:40.763Z,15.69
2016-05-28T01:43:50.782Z,15.62
2016-05-28T01:44:00.782Z,15.6
2016-05-28T01:44:10.782Z,15.65
2016-05-28T01:44:20.782Z,15.62
2016-05-28T01:44:30.797Z,15.57
2016-05-28T01:44:40.797Z,15.59
2016-05-28T01:44:50.799Z,15.54
2016-05-28T01:45:00.815Z,15.55
2016-05-28T01:45:10.815Z,15.52
2016-05-28T01:45:20.815Z,15.54
2016-05-28T01:45:30.831Z,15.65
2016-05-28T01:45:40.831Z,15.69
2016-05-28T01:45:50.834Z,15.54
2016-05-28T01:46:00.834Z,15.55
2016-05-28T01:46:10.849Z,15.54
2016-05-28T01:46:20.849Z,15.59
2016-05-28T01:46:30.849Z,15.63
2016-05-28T01:46:40.865Z,15.54
2016-05-28T01:46:50.868Z,15.65
2016-05-28T01:47:00.868Z,15.63
2016-05-28T01:47:10.868Z,15.59
2016-05-28T01:47:20.884Z,15.62
2016-05-28T01:47:30.884Z,15.63
2016-05-28T01:47:40.899Z,15.66
2016-05-28T01:47:50.886Z,15.6
2016-05-28T01:48:00.901Z,15.6
2016-05-28T01:48:10.901Z,15.63
2016-05-28T01:48:20.917Z,15.57
2016-05-28T01:48:30.917Z,15.69
2016-05-28T01:48:40.917Z,15.7
2016-05-28T01:48:50.920Z,15.65
2016-05-28T01:49:00.935Z,15.63
2016-05-28T01:49:10.935Z,15.6
2016-05-28T01:49:20.935Z,15.63
2016-05-28T01:49:30.951Z,15.63
2016-05-28T01:49:40.951Z,15.65
2016-05-28T01:49:50.954Z,15.63
2016-05-28T01:50:00.954Z,15.65
2016-05-28T01:50:10.970Z,15.67
2016-05-28T01:50:20.970Z,15.65
2016-05-28T01:50:30.970Z,15.65
2016-05-28T01:50:40.985Z,15.65
2016-05-28T01:50:51.003Z,15.62
2016-05-28T01:51:01.003Z,15.62
2016-05-28T01:51:11.003Z,15.7
2016-05-28T01:51:21.003Z,15.65
2016-05-28T01:51:31.003Z,15.73
2016-05-28T01:51:41.003Z,15.69
2016-05-28T01:51:51.022Z,15.69
2016-05-28T01:52:01.022Z,15.72
2016-05-28T01:52:11.022Z,15.76
2016-05-28T01:52:21.037Z,15.69
2016-05-28T01:52:31.037Z,15.63
2016-05-28T01:52:41.037Z,15.72
2016-05-28T01:52:51.055Z,15.7
2016-05-28T01:53:01.055Z,15.75
2016-05-28T01:53:11.055Z,15.73
2016-05-28T01:53:21.055Z,15.76
2016-05-28T01:53:31.070Z,15.73
2016-05-28T01:53:41.070Z,15.69
2016-05-28T01:53:51.073Z,15.72
2016-05-28T01:54:01.089Z,15.63
2016-05-28T01:54:11.089Z,15.73
2016-05-28T01:54:21.089Z,15.67
2016-05-28T01:54:31.089Z,15.7
2016-05-28T01:54:41.105Z,15.72
2016-05-28T01:54:51.108Z,15.66
2016-05-28T01:55:01.108Z,15.73
2016-05-28T01:55:11.123Z,15.78
2016-05-28T01:55:21.123Z,15.72
2016-05-28T01:55:31.123Z,15.73
2016-05-28T01:55:41.155Z,15.65
2016-05-28T01:55:51.142Z,15.73
2016-05-28T01:56:01.142Z,15.75
2016-05-28T01:56:11.158Z,15.72
2016-05-28T01:56:21.158Z,15.73
2016-05-28T01:56:31.158Z,15.73
2016-05-28T01:56:41.158Z,15.8
2016-05-28T01:56:51.176Z,15.75
2016-05-28T01:57:01.176Z,15.75
2016-05-28T01:57:11.176Z,15.7
2016-05-28T01:57:21.192Z,15.78
2016-05-28T01:57:31.192Z,15.78
2016-05-28T01:57:41.207Z,15.75
2016-05-28T01:57:51.194Z,15.78
2016-05-28T01:58:01.209Z,15.78
2016-05-28T01:58:11.209Z,15.75
2016-05-28T01:58:21.209Z,15.73
2016-05-28T01:58:31.209Z,15.76
2016-05-28T01:58:41.225Z,15.73
2016-05-28T01:58:51.228Z,15.75
2016-05-28T01:59:01.228Z,15.78
2016-05-28T01:59:11.244Z,15.76
2016-05-28T01:59:21.244Z,15.8
2016-05-28T01:59:31.244Z,15.75
2016-05-28T01:59:41.259Z,15.76
2016-05-28T01:59:51.262Z,15.75
2016-05-28T02:00:01.262Z,15.73
2016-05-28T02:00:11.278Z,15.75
2016-05-28T02:00:21.278Z,15.76
2016-05-28T02:00:31.278Z,15.76
2016-05-28T02:00:41.294Z,15.81
2016-05-28T02:00:51.296Z,15.72
2016-05-28T02:01:01.296Z,15.76
2016-05-28T02:01:11.296Z,15.76
2016-05-28T02:01:21.296Z,15.76
2016-05-28T02:01:31.311Z,15.81
2016-05-28T02:01:41.311Z,15.73
2016-05-28T02:01:51.314Z,15.73
2016-05-28T02:02:01.330Z,15.73
2016-05-28T02:02:11.330Z,15.76
2016-05-28T02:02:21.330Z,15.81
2016-05-28T02:02:31.361Z,15.76
2016-05-28T02:02:41.345Z,15.76
2016-05-28T02:02:51.363Z,15.75
2016-05-28T02:03:01.363Z,15.76
2016-05-28T02:03:11.363Z,15.76
2016-05-28T02:03:21.363Z,15.78
2016-05-28T02:03:31.363Z,15.72
2016-05-28T02:03:41.379Z,15.76
2016-05-28T02:03:51.382Z,15.8
2016-05-28T02:04:01.382Z,15.83
2016-05-28T02:04:11.397Z,15.83
2016-05-28T02:04:21.397Z,15.73
2016-05-28T02:04:31.397Z,15.75
2016-05-28T02:04:41.413Z,15.75
2016-05-28T02:04:51.869Z,15.84
2016-05-28T02:05:01.744Z,15.84
2016-05-28T02:05:11.885Z,15.76
2016-05-28T02:05:21.682Z,15.75
2016-05-28T02:05:31.432Z,15.81
2016-05-28T02:05:41.432Z,15.73
2016-05-28T02:05:51.435Z,15.84
2016-05-28T02:06:01.450Z,15.83
2016-05-28T02:06:11.450Z,15.84
2016-05-28T02:06:21.450Z,15.83
2016-05-28T02:06:31.466Z,15.78
2016-05-28T02:06:41.466Z,15.75
2016-05-28T02:06:51.469Z,15.76
2016-05-28T02:07:01.484Z,15.75
2016-05-28T02:07:11.484Z,15.81
2016-05-28T02:07:21.484Z,15.81
2016-05-28T02:07:31.500Z,15.78
2016-05-28T02:07:41.500Z,15.84
2016-05-28T02:07:51.502Z,15.85
2016-05-28T02:08:01.502Z,15.84
2016-05-28T02:08:11.518Z,15.85
2016-05-28T02:08:21.533Z,15.76
2016-05-28T02:08:31.518Z,15.83
2016-05-28T02:08:41.533Z,15.87
2016-05-28T02:08:51.536Z,15.75
2016-05-28T02:09:01.536Z,15.75
2016-05-28T02:09:11.552Z,15.84
2016-05-28T02:09:21.552Z,15.72